Time;durP1;ratioP1;P1;durP2;ratioP2;P2;SDS_P1;SDS_P2;PMS_P1;PMS_P2;Temp;Humidity;BMP_temperature;BMP_pressure;BME280_temperature;BME280_humidity;BME280_pressure;Samples;Min_cycle;Max_cycle;Signal;HPM_P1;HPM_P2
2022/10/18 00:00:50;;;;;;;1.40;1.00;;;24.40;58.60;;;;;;5000328;28;20122;-71
2022/10/18 00:03:16;;;;;;;1.38;1.00;;;24.40;59.10;;;;;;4981003;28;20030;-71
2022/10/18 00:05:42;;;;;;;1.58;0.95;;;24.40;58.70;;;;;;5000796;28;20039;-71
2022/10/18 00:08:07;;;;;;;1.73;1.20;;;24.40;58.70;;;;;;5002174;28;20031;-71
2022/10/18 00:10:33;;;;;;;2.13;0.90;;;24.40;58.70;;;;;;5002144;28;20030;-70
2022/10/18 00:12:59;;;;;;;1.48;1.02;;;24.30;58.70;;;;;;4999023;28;20033;-71
2022/10/18 00:15:24;;;;;;;1.67;0.98;;;24.30;58.70;;;;;;4980804;28;20046;-70
2022/10/18 00:17:50;;;;;;;1.63;1.08;;;24.30;58.80;;;;;;5000064;28;20049;-70
2022/10/18 00:20:16;;;;;;;1.88;1.10;;;24.30;58.80;;;;;;4995945;28;20515;-71
2022/10/18 00:22:41;;;;;;;1.70;1.20;;;24.30;58.80;;;;;;4997811;28;20026;-71
2022/10/18 00:25:08;;;;;;;1.38;1.00;;;24.30;58.80;;;;;;5003195;28;20121;-70
2022/10/18 00:27:35;;;;;;;1.08;0.95;;;24.30;58.90;;;;;;4999941;28;20036;-70
2022/10/18 00:30:00;;;;;;;1.08;0.90;;;24.30;59.10;;;;;;4995502;28;20517;-71
2022/10/18 00:32:27;;;;;;;1.73;1.08;;;24.20;58.90;;;;;;4987823;28;20062;-71
2022/10/18 00:34:52;;;;;;;1.73;1.20;;;24.20;58.90;;;;;;5001739;28;20026;-71
2022/10/18 00:37:18;;;;;;;1.45;1.05;;;24.20;58.90;;;;;;5000008;28;20019;-70
2022/10/18 00:39:44;;;;;;;1.77;1.27;;;24.20;59.00;;;;;;5000950;28;20026;-71
2022/10/18 00:42:29;;;;;;;1.58;1.00;;;24.20;59.00;;;;;;4998006;28;20471;-70
2022/10/18 00:45:09;;;;;;;1.70;1.00;;;24.20;59.00;;;;;;5002217;28;20457;-71
2022/10/18 00:47:35;;;;;;;1.40;1.00;;;24.20;59.00;;;;;;4981889;28;20125;-71
2022/10/18 00:50:03;;;;;;;1.45;1.05;;;24.10;59.00;;;;;;5000839;28;20106;-71
2022/10/18 00:52:57;;;;;;;1.30;0.90;;;24.10;59.10;;;;;;4981326;28;20486;-71
2022/10/18 00:55:27;;;;;;;1.80;1.20;;;24.10;59.00;;;;;;4996056;28;20553;-70
2022/10/18 00:57:53;;;;;;;1.45;1.02;;;24.10;59.00;;;;;;4997266;28;20045;-71
2022/10/18 01:00:20;;;;;;;1.40;0.98;;;24.10;59.10;;;;;;4996026;28;20463;-70
2022/10/18 01:02:46;;;;;;;1.52;1.00;;;24.10;59.10;;;;;;4999484;28;20031;-71
2022/10/18 01:05:14;;;;;;;1.58;0.95;;;24.10;59.10;;;;;;4995008;28;20474;-71
2022/10/18 01:08:21;;;;;;;1.48;1.10;;;24.10;59.10;;;;;;4992974;28;20205;-70
2022/10/18 01:11:17;;;;;;;1.30;1.10;;;24.10;59.10;;;;;;4962441;28;20050;-70
2022/10/18 01:14:11;;;;;;;1.45;1.00;;;24.10;59.10;;;;;;4999094;28;20109;-70
2022/10/18 01:17:05;;;;;;;1.67;0.98;;;24.10;59.20;;;;;;4986908;28;20046;-70
2022/10/18 01:19:52;;;;;;;1.48;0.98;;;24.00;59.10;;;;;;5002333;28;20061;-70
2022/10/18 01:22:30;;;;;;;1.55;1.00;;;24.00;59.10;;;;;;5002805;28;20128;-71
2022/10/18 01:25:17;;;;;;;1.58;1.00;;;24.00;59.20;;;;;;5000735;28;20430;-70
2022/10/18 01:28:12;;;;;;;1.20;0.88;;;24.00;59.20;;;;;;5000861;28;20529;-71
2022/10/18 01:30:51;;;;;;;1.40;1.08;;;24.00;59.20;;;;;;4983494;28;20030;-70
2022/10/18 01:33:16;;;;;;;1.52;1.05;;;24.00;59.20;;;;;;4998093;28;20085;-71
2022/10/18 01:35:49;;;;;;;2.17;1.20;;;24.00;59.20;;;;;;4997952;28;20062;-71
2022/10/18 01:38:17;;;;;;;1.40;1.00;;;23.90;59.20;;;;;;4967426;28;20042;-70
2022/10/18 01:40:47;;;;;;;1.00;0.90;;;24.00;59.20;;;;;;5000959;28;20105;-71
2022/10/18 01:43:13;;;;;;;;;;;23.90;59.20;;;;;;4995897;28;20034;-71
2022/10/18 01:45:40;;;;;;;1.60;1.00;;;23.90;59.20;;;;;;4989097;28;20437;-70
2022/10/18 01:48:07;;;;;;;1.88;1.10;;;23.90;59.20;;;;;;4993326;28;20185;-70
2022/10/18 01:50:34;;;;;;;1.30;0.90;;;23.90;59.20;;;;;;4993178;28;20112;-71
2022/10/18 01:53:00;;;;;;;1.70;1.00;;;23.90;59.20;;;;;;5000645;28;20508;-70
2022/10/18 01:55:40;;;;;;;1.52;0.95;;;23.90;59.20;;;;;;4981949;28;20062;-71
2022/10/18 01:58:20;;;;;;;1.40;0.98;;;23.90;59.20;;;;;;4994871;28;20413;-70
2022/10/18 02:01:01;;;;;;;1.52;1.00;;;23.90;59.20;;;;;;4993246;28;20034;-70
2022/10/18 02:03:28;;;;;;;2.38;1.00;;;23.90;59.30;;;;;;4979362;28;20037;-70
2022/10/18 02:05:57;;;;;;;1.15;0.85;;;23.90;59.30;;;;;;4985289;28;20046;-70
2022/10/18 02:08:34;;;;;;;1.50;0.90;;;23.80;59.30;;;;;;4988595;28;20077;-71
2022/10/18 02:11:06;;;;;;;1.33;1.00;;;23.90;59.30;;;;;;4985774;28;20038;-71
2022/10/18 02:13:40;;;;;;;1.10;0.90;;;23.80;59.30;;;;;;4999077;28;20026;-71
2022/10/18 02:16:15;;;;;;;1.52;1.00;;;23.90;59.30;;;;;;4996555;28;20560;-70
2022/10/18 02:18:46;;;;;;;1.08;0.90;;;23.80;59.30;;;;;;4983231;28;20038;-70
2022/10/18 02:21:16;;;;;;;1.40;1.08;;;23.80;59.30;;;;;;4999720;28;20072;-71
2022/10/18 02:23:44;;;;;;;1.02;0.80;;;23.80;59.80;;;;;;4978369;28;20490;-71
2022/10/18 02:26:11;;;;;;;1.25;0.95;;;23.80;59.30;;;;;;4998969;28;20049;-71
2022/10/18 02:28:37;;;;;;;1.20;0.95;;;23.80;59.30;;;;;;4981882;28;20030;-71
2022/10/18 02:31:21;;;;;;;1.20;0.93;;;23.80;59.30;;;;;;4980106;28;20378;-71
2022/10/18 02:33:55;;;;;;;1.10;0.90;;;23.80;59.30;;;;;;4994473;28;20461;-71
2022/10/18 02:36:30;;;;;;;1.48;1.02;;;23.80;59.30;;;;;;4994316;28;20460;-70
2022/10/18 02:39:02;;;;;;;1.70;1.00;;;23.80;59.40;;;;;;4994378;28;20877;-70
2022/10/18 02:41:29;;;;;;;1.13;0.90;;;23.80;59.90;;;;;;5001224;28;20027;-71
2022/10/18 02:43:54;;;;;;;1.15;0.90;;;23.70;59.30;;;;;;5000166;28;20109;-70
2022/10/18 02:46:20;;;;;;;0.85;0.80;;;23.80;59.30;;;;;;4962926;28;20117;-71
2022/10/18 02:48:46;;;;;;;1.30;0.98;;;23.70;59.30;;;;;;4999592;28;20145;-71
2022/10/18 02:51:12;;;;;;;1.27;1.00;;;23.70;59.30;;;;;;4997160;28;20177;-71
2022/10/18 02:53:37;;;;;;;1.63;0.90;;;23.70;59.30;;;;;;4995651;28;20026;-71
2022/10/18 02:56:03;;;;;;;1.48;0.90;;;23.70;59.30;;;;;;4996605;28;20127;-71
2022/10/18 02:58:28;;;;;;;1.52;0.90;;;23.70;59.30;;;;;;4979593;28;20940;-70
2022/10/18 03:00:55;;;;;;;1.00;0.88;;;23.70;59.30;;;;;;4996296;28;20077;-70
2022/10/18 03:03:20;;;;;;;1.27;1.00;;;23.70;59.80;;;;;;5000131;28;20026;-71
2022/10/18 03:05:50;;;;;;;1.00;0.90;;;23.70;59.30;;;;;;5000130;28;20037;-70
2022/10/18 03:08:16;;;;;;;1.30;0.90;;;23.70;59.30;;;;;;4999323;28;20397;-70
2022/10/18 03:10:45;;;;;;;0.90;0.73;;;23.70;59.40;;;;;;4997101;28;20034;-72
2022/10/18 03:13:11;;;;;;;1.58;0.82;;;23.70;59.30;;;;;;4960260;28;20393;-70
2022/10/18 03:15:37;;;;;;;1.27;0.90;;;23.70;59.30;;;;;;4979248;28;20126;-70
2022/10/18 03:18:03;;;;;;;1.17;0.88;;;23.70;59.30;;;;;;4975296;28;20374;-70
2022/10/18 03:20:29;;;;;;;1.20;1.00;;;23.70;59.40;;;;;;4995644;28;20028;-70
2022/10/18 03:22:55;;;;;;;0.85;0.80;;;23.60;59.30;;;;;;4998277;28;20037;-70
2022/10/18 03:25:20;;;;;;;0.95;0.85;;;23.70;59.30;;;;;;4998081;28;20430;-70
2022/10/18 03:27:46;;;;;;;0.93;0.80;;;23.70;59.30;;;;;;4979429;28;20078;-70
2022/10/18 03:30:12;;;;;;;1.10;0.90;;;23.70;59.30;;;;;;4979561;28;20056;-70
2022/10/18 03:32:39;;;;;;;0.98;0.80;;;23.70;59.30;;;;;;4996875;28;20033;-70
2022/10/18 03:35:06;;;;;;;1.42;0.80;;;23.60;59.30;;;;;;4998465;28;20117;-70
2022/10/18 03:37:32;;;;;;;0.90;0.80;;;23.60;59.30;;;;;;4994727;28;20497;-70
2022/10/18 03:39:58;;;;;;;0.82;0.80;;;23.60;59.30;;;;;;4977474;28;20018;-70
2022/10/18 03:42:23;;;;;;;0.80;0.80;;;23.60;59.40;;;;;;4987537;28;20030;-70
2022/10/18 03:44:49;;;;;;;1.10;0.90;;;23.60;59.40;;;;;;4992165;28;20423;-70
2022/10/18 03:47:15;;;;;;;1.10;0.82;;;23.60;59.30;;;;;;4995531;28;20023;-70
2022/10/18 03:49:40;;;;;;;2.78;0.90;;;23.60;59.30;;;;;;5001318;28;20449;-70
2022/10/18 03:52:06;;;;;;;1.58;1.00;;;23.60;59.40;;;;;;4998273;28;20030;-70
2022/10/18 03:54:32;;;;;;;1.23;0.73;;;23.60;59.30;;;;;;4998222;28;20034;-71
2022/10/18 03:56:57;;;;;;;0.90;0.80;;;23.60;59.30;;;;;;4998069;28;20110;-71
2022/10/18 03:59:23;;;;;;;1.25;0.77;;;23.50;59.20;;;;;;4998321;28;20352;-71
2022/10/18 04:01:48;;;;;;;0.80;0.80;;;23.60;59.30;;;;;;4997785;28;20475;-70
2022/10/18 04:04:14;;;;;;;0.70;0.70;;;23.60;59.30;;;;;;4998872;28;20026;-70
2022/10/18 04:06:41;;;;;;;1.00;0.80;;;23.60;59.30;;;;;;4978583;28;20033;-71
2022/10/18 04:09:07;;;;;;;0.70;0.70;;;23.60;59.30;;;;;;4996753;28;20030;-70
2022/10/18 04:11:32;;;;;;;1.02;0.80;;;23.60;59.30;;;;;;4995237;28;20069;-70
2022/10/18 04:13:58;;;;;;;0.70;0.70;;;23.60;59.30;;;;;;4996548;28;20495;-70
2022/10/18 04:16:24;;;;;;;1.48;0.82;;;23.60;59.30;;;;;;4978202;28;20053;-72
2022/10/18 04:18:50;;;;;;;1.00;0.90;;;23.60;59.30;;;;;;4982260;28;20034;-70
2022/10/18 04:21:15;;;;;;;1.00;0.70;;;23.60;59.40;;;;;;4974936;28;20026;-70
2022/10/18 04:23:41;;;;;;;0.70;0.70;;;23.50;59.30;;;;;;4988604;28;20034;-70
2022/10/18 04:26:06;;;;;;;1.10;0.90;;;23.60;59.40;;;;;;5001219;28;20029;-71
2022/10/18 04:28:33;;;;;;;1.35;0.90;;;23.50;59.30;;;;;;4995177;28;20037;-70
2022/10/18 04:30:59;;;;;;;1.50;0.90;;;23.50;59.30;;;;;;4972151;28;20516;-70
2022/10/18 04:33:25;;;;;;;0.93;0.80;;;23.50;59.30;;;;;;4996534;28;20026;-70
2022/10/18 04:35:52;;;;;;;0.82;0.70;;;23.50;59.30;;;;;;4999668;28;20249;-70
2022/10/18 04:38:18;;;;;;;1.77;0.80;;;23.50;59.30;;;;;;4980504;28;20023;-70
2022/10/18 04:40:46;;;;;;;0.85;0.80;;;23.50;59.30;;;;;;5000035;28;20026;-70
2022/10/18 04:43:12;;;;;;;0.60;0.60;;;23.50;59.40;;;;;;4997649;28;20049;-70
2022/10/18 04:45:38;;;;;;;0.95;0.80;;;23.50;59.30;;;;;;4999843;28;20057;-70
2022/10/18 04:48:04;;;;;;;0.93;0.82;;;23.50;59.30;;;;;;4999045;28;20105;-71
2022/10/18 04:50:30;;;;;;;0.65;0.65;;;23.50;59.30;;;;;;5000084;28;20061;-70
2022/10/18 04:52:55;;;;;;;1.58;0.90;;;23.50;59.30;;;;;;5001569;28;20022;-70
2022/10/18 04:55:24;;;;;;;0.70;0.70;;;23.50;59.30;;;;;;4999592;28;20033;-71
2022/10/18 04:57:49;;;;;;;1.00;0.70;;;23.50;59.30;;;;;;4992758;28;20137;-70
2022/10/18 05:00:15;;;;;;;1.00;0.90;;;23.50;59.30;;;;;;4991516;28;20122;-70
2022/10/18 05:02:41;;;;;;;0.88;0.70;;;23.50;59.30;;;;;;4999695;28;20093;-70
2022/10/18 05:05:07;;;;;;;0.75;0.75;;;23.50;59.30;;;;;;4998849;28;20030;-70
2022/10/18 05:07:32;;;;;;;0.70;0.70;;;23.50;59.40;;;;;;4997622;28;20053;-70
2022/10/18 05:09:58;;;;;;;0.90;0.80;;;23.50;59.30;;;;;;4992650;28;20440;-70
2022/10/18 05:12:23;;;;;;;1.08;0.77;;;23.50;59.40;;;;;;4998360;28;20038;-70
2022/10/18 05:14:49;;;;;;;1.13;0.90;;;23.50;59.30;;;;;;4992995;28;20476;-70
2022/10/18 05:17:15;;;;;;;1.55;0.80;;;23.50;59.40;;;;;;4987242;28;20056;-70
2022/10/18 05:19:40;;;;;;;0.60;0.60;;;23.50;59.40;;;;;;5003391;28;20199;-70
2022/10/18 05:22:06;;;;;;;1.00;0.80;;;23.50;59.40;;;;;;4980500;28;20087;-70
2022/10/18 05:24:32;;;;;;;1.30;0.70;;;23.50;59.40;;;;;;5000599;28;20044;-70
2022/10/18 05:26:58;;;;;;;0.90;0.70;;;23.50;59.40;;;;;;4999291;28;20041;-69
2022/10/18 05:29:23;;;;;;;1.30;0.70;;;23.50;59.40;;;;;;4997861;28;20076;-66
2022/10/18 05:31:49;;;;;;;1.20;0.90;;;23.50;59.90;;;;;;4996283;28;20386;-67
2022/10/18 05:34:16;;;;;;;1.15;0.80;;;23.60;60.50;;;;;;4997983;28;20049;-66
2022/10/18 05:36:41;;;;;;;1.92;0.80;;;23.90;60.50;;;;;;4983650;28;20371;-68
2022/10/18 05:39:07;;;;;;;0.70;0.70;;;24.10;60.20;;;;;;4998107;28;20033;-67
2022/10/18 05:41:33;;;;;;;1.52;0.80;;;24.30;59.90;;;;;;4987242;28;20104;-66
2022/10/18 05:44:03;;;;;;;0.60;0.60;;;24.50;59.60;;;;;;4997707;28;20050;-66
2022/10/18 05:46:29;;;;;;;1.05;0.80;;;24.70;59.40;;;;;;4981271;28;20547;-67
2022/10/18 05:48:54;;;;;;;0.85;0.60;;;24.90;59.10;;;;;;4995705;28;20042;-66
2022/10/18 05:51:20;;;;;;;0.85;0.52;;;25.00;58.90;;;;;;4991911;28;20514;-67
2022/10/18 05:53:45;;;;;;;0.50;0.50;;;25.00;58.80;;;;;;4989682;28;20034;-68
2022/10/18 05:56:11;;;;;;;0.68;0.60;;;24.90;58.80;;;;;;4993331;28;20046;-68
2022/10/18 05:58:37;;;;;;;1.38;0.70;;;24.90;59.20;;;;;;5002020;28;20021;-67
2022/10/18 06:01:04;;;;;;;2.15;0.80;;;25.00;59.70;;;;;;5000972;28;20022;-68
2022/10/18 06:03:30;;;;;;;1.27;0.60;;;25.20;59.30;;;;;;4999189;28;20026;-67
2022/10/18 06:05:59;;;;;;;0.52;0.52;;;25.30;59.20;;;;;;5002434;28;20513;-66
2022/10/18 06:08:25;;;;;;;1.35;0.80;;;25.30;59.10;;;;;;4991093;28;20030;-70
2022/10/18 06:10:51;;;;;;;0.50;0.50;;;25.30;59.10;;;;;;4986094;28;20068;-66
2022/10/18 06:13:17;;;;;;;1.00;0.60;;;25.20;59.20;;;;;;4997805;28;20034;-67
2022/10/18 06:15:42;;;;;;;0.70;0.60;;;25.20;59.20;;;;;;4997960;28;20137;-67
2022/10/18 06:18:08;;;;;;;0.80;0.70;;;25.20;59.10;;;;;;4995513;28;20034;-68
2022/10/18 06:20:33;;;;;;;0.60;0.60;;;25.20;59.10;;;;;;4997691;28;20026;-67
2022/10/18 06:22:59;;;;;;;1.02;0.65;;;25.20;58.90;;;;;;5000489;28;20029;-66
2022/10/18 06:25:25;;;;;;;0.47;0.47;;;25.20;59.00;;;;;;4995398;28;20026;-67
2022/10/18 06:27:50;;;;;;;1.50;0.60;;;25.30;59.10;;;;;;4976303;28;20026;-67
2022/10/18 06:30:16;;;;;;;0.50;0.50;;;25.30;58.90;;;;;;4991427;28;20033;-68
2022/10/18 06:32:41;;;;;;;1.33;0.93;;;25.30;59.10;;;;;;5000351;28;20105;-68
2022/10/18 06:35:08;;;;;;;1.60;1.08;;;25.30;57.10;;;;;;4998798;28;20026;-68
2022/10/18 06:37:34;;;;;;;1.58;1.00;;;25.30;56.40;;;;;;4978905;28;20026;-66
2022/10/18 06:39:59;;;;;;;1.30;0.70;;;25.30;55.70;;;;;;4999762;28;20109;-70
2022/10/18 06:42:25;;;;;;;1.75;0.90;;;25.30;55.70;;;;;;4994569;28;20105;-68
2022/10/18 06:44:51;;;;;;;1.45;0.90;;;25.30;55.70;;;;;;4999157;28;20113;-70
2022/10/18 06:47:16;;;;;;;1.75;1.00;;;25.30;55.60;;;;;;4999573;28;20033;-71
2022/10/18 06:49:42;;;;;;;1.10;0.85;;;25.30;55.50;;;;;;5002691;28;20022;-69
2022/10/18 06:52:07;;;;;;;1.42;0.90;;;25.30;55.50;;;;;;5003550;28;20547;-68
2022/10/18 06:54:33;;;;;;;1.00;0.80;;;25.30;55.60;;;;;;4989348;28;20077;-68
2022/10/18 06:57:01;;;;;;;1.15;0.95;;;25.30;55.60;;;;;;4997521;28;20038;-68
2022/10/18 06:59:27;;;;;;;1.35;1.00;;;25.30;55.60;;;;;;4999785;28;20057;-69
2022/10/18 07:01:52;;;;;;;1.80;1.00;;;25.30;55.60;;;;;;4995810;28;20062;-70
2022/10/18 07:04:18;;;;;;;1.00;0.85;;;25.30;55.50;;;;;;4976519;28;20030;-68
2022/10/18 07:06:44;;;;;;;2.28;0.77;;;25.30;55.60;;;;;;4996761;28;20073;-69
2022/10/18 07:09:10;;;;;;;1.48;0.85;;;25.30;55.60;;;;;;4994170;28;20370;-70
2022/10/18 07:11:35;;;;;;;1.35;0.90;;;25.30;55.70;;;;;;4999473;28;20022;-67
2022/10/18 07:14:04;;;;;;;1.13;0.88;;;25.30;55.70;;;;;;4996194;28;20037;-67
2022/10/18 07:16:31;;;;;;;1.20;0.88;;;25.30;55.70;;;;;;4999163;28;20512;-68
2022/10/18 07:18:57;;;;;;;1.58;0.90;;;25.30;55.70;;;;;;5001522;28;20496;-70
2022/10/18 07:21:24;;;;;;;1.60;0.90;;;25.20;55.70;;;;;;4985452;28;20022;-70
2022/10/18 07:23:51;;;;;;;1.20;0.82;;;25.20;55.70;;;;;;4998265;28;20025;-71
2022/10/18 07:26:36;;;;;;;1.83;1.10;;;25.30;55.80;;;;;;5000982;28;20124;-67
2022/10/18 07:29:08;;;;;;;1.20;0.80;;;25.30;55.80;;;;;;4980790;28;20121;-69
2022/10/18 07:31:34;;;;;;;1.17;0.90;;;25.30;55.80;;;;;;4976750;28;20035;-69
2022/10/18 07:34:02;;;;;;;1.73;1.08;;;25.30;55.80;;;;;;4984492;28;20026;-70
2022/10/18 07:36:29;;;;;;;1.48;1.05;;;25.30;55.80;;;;;;5000290;28;20083;-69
2022/10/18 07:38:54;;;;;;;1.10;0.93;;;25.30;55.80;;;;;;5003263;28;20053;-71
2022/10/18 07:41:21;;;;;;;1.30;1.00;;;25.30;55.80;;;;;;4999215;28;20061;-71
2022/10/18 07:43:49;;;;;;;1.23;0.90;;;25.30;55.80;;;;;;4977739;28;20066;-73
2022/10/18 07:46:15;;;;;;;1.15;0.95;;;25.20;55.80;;;;;;4979874;28;20038;-73
2022/10/18 07:48:41;;;;;;;1.23;0.90;;;25.30;55.90;;;;;;4995014;28;20525;-68
2022/10/18 07:51:08;;;;;;;1.67;1.00;;;25.30;55.90;;;;;;4998012;28;20030;-67
2022/10/18 07:53:33;;;;;;;1.38;1.00;;;25.30;55.80;;;;;;4996809;28;20450;-69
2022/10/18 07:56:14;;;;;;;1.30;0.95;;;25.30;55.80;;;;;;4995741;28;20088;-71
2022/10/18 07:58:40;;;;;;;1.77;1.00;;;25.30;55.90;;;;;;4980879;28;20053;-68
2022/10/18 08:01:07;;;;;;;0.80;0.80;;;25.30;55.90;;;;;;4998268;28;20422;-66
2022/10/18 08:03:34;;;;;;;1.40;1.08;;;25.30;55.90;;;;;;4998552;28;20022;-67
2022/10/18 08:06:00;;;;;;;1.25;0.98;;;25.30;55.90;;;;;;4995748;28;20065;-68
2022/10/18 08:08:28;;;;;;;1.27;0.82;;;25.30;55.80;;;;;;4984354;28;20116;-67
2022/10/18 08:10:54;;;;;;;1.10;0.90;;;25.30;55.80;;;;;;4998694;28;20029;-67
2022/10/18 08:13:19;;;;;;;0.93;0.90;;;25.30;55.80;;;;;;4994766;28;20509;-71
2022/10/18 08:15:45;;;;;;;1.70;0.90;;;25.30;55.80;;;;;;4996938;28;20053;-71
2022/10/18 08:18:11;;;;;;;1.38;0.90;;;25.30;55.80;;;;;;4998491;28;20034;-71
2022/10/18 08:20:42;;;;;;;1.20;0.90;;;25.30;55.80;;;;;;4989553;28;20049;-71
2022/10/18 08:23:08;;;;;;;1.38;1.00;;;25.30;55.90;;;;;;5005317;28;20482;-70
2022/10/18 08:25:33;;;;;;;1.95;0.90;;;25.30;55.90;;;;;;5000702;28;20121;-71
2022/10/18 08:28:00;;;;;;;1.63;0.90;;;25.30;55.90;;;;;;5003066;28;20038;-67
2022/10/18 08:30:26;;;;;;;1.65;1.00;;;25.30;55.90;;;;;;4990534;28;20366;-67
2022/10/18 08:32:51;;;;;;;1.00;0.77;;;25.30;56.00;;;;;;4998194;28;20035;-68
2022/10/18 08:35:17;;;;;;;1.45;1.00;;;25.30;55.90;;;;;;5000942;28;20117;-70
2022/10/18 08:37:44;;;;;;;1.58;1.10;;;25.30;55.90;;;;;;4995019;28;20446;-69
2022/10/18 08:40:12;;;;;;;1.40;0.90;;;25.30;55.90;;;;;;5003057;28;20427;-71
2022/10/18 08:42:44;;;;;;;1.30;0.93;;;25.30;55.90;;;;;;5000619;28;20087;-69
2022/10/18 08:45:11;;;;;;;1.33;0.90;;;25.30;55.90;;;;;;5002705;28;20380;-71
2022/10/18 08:47:47;;;;;;;1.98;0.93;;;25.30;55.90;;;;;;4997670;28;20083;-68
2022/10/18 08:50:20;;;;;;;2.35;0.95;;;25.30;55.90;;;;;;4994189;28;20019;-67
2022/10/18 08:53:02;;;;;;;1.63;1.05;;;25.30;55.90;;;;;;4996889;28;20026;-70
2022/10/18 08:55:51;;;;;;;1.40;1.00;;;25.30;55.90;;;;;;4997099;28;20409;-68
2022/10/18 08:58:23;;;;;;;1.60;0.90;;;25.30;55.90;;;;;;4994205;28;20377;-68
2022/10/18 09:00:56;;;;;;;1.38;0.85;;;25.30;55.90;;;;;;4995030;28;20022;-68
2022/10/18 09:03:32;;;;;;;1.08;0.90;;;25.30;55.90;;;;;;4995232;28;20098;-68
2022/10/18 09:06:24;;;;;;;1.13;0.80;;;25.30;56.00;;;;;;4997264;28;20397;-68
2022/10/18 09:09:14;;;;;;;1.75;1.00;;;25.30;56.00;;;;;;5003989;28;20037;-68
2022/10/18 09:12:39;;;;;;;1.23;0.90;;;25.30;56.00;;;;;;4991555;28;20130;-68
2022/10/18 09:15:33;;;;;;;1.58;0.80;;;25.30;56.10;;;;;;4931700;29;20452;-68
2022/10/18 09:18:28;;;;;;;1.55;0.98;;;25.20;56.10;;;;;;4932452;29;20028;-69
2022/10/18 09:20:58;;;;;;;1.83;1.13;;;25.20;56.10;;;;;;4988489;28;20053;-67
2022/10/18 09:23:47;;;;;;;1.40;0.90;;;25.20;56.10;;;;;;4980115;28;20499;-68
2022/10/18 09:26:17;;;;;;;1.65;0.80;;;25.20;56.10;;;;;;4966364;28;20160;-68
2022/10/18 09:29:16;;;;;;;1.88;1.10;;;25.20;56.10;;;;;;4999842;28;20091;-66
2022/10/18 09:32:09;;;;;;;1.45;1.10;;;25.20;56.10;;;;;;5000280;28;20057;-66
2022/10/18 09:34:38;;;;;;;1.50;1.00;;;25.20;56.10;;;;;;4996596;28;20046;-68
2022/10/18 09:37:04;;;;;;;1.52;1.10;;;25.20;56.00;;;;;;4995219;28;20029;-68
2022/10/18 09:39:33;;;;;;;1.50;0.80;;;25.20;56.10;;;;;;4998737;28;20033;-67
2022/10/18 09:42:07;;;;;;;1.85;1.00;;;25.30;56.10;;;;;;4975155;28;20048;-67
2022/10/18 09:44:40;;;;;;;1.10;0.90;;;25.30;56.10;;;;;;4997428;28;20037;-67
2022/10/18 09:47:21;;;;;;;1.83;1.05;;;25.20;56.10;;;;;;4996200;28;20037;-67
2022/10/18 09:49:49;;;;;;;1.60;0.90;;;25.20;56.10;;;;;;4995505;28;20473;-70
2022/10/18 09:52:35;;;;;;;1.77;0.93;;;25.30;56.10;;;;;;4989789;28;20079;-67
2022/10/18 09:55:17;;;;;;;1.92;1.30;;;25.20;56.00;;;;;;4982832;28;20470;-68
2022/10/18 09:57:48;;;;;;;1.38;1.00;;;25.30;56.00;;;;;;4996665;28;20105;-68
2022/10/18 10:00:31;;;;;;;2.17;1.10;;;25.30;56.10;;;;;;5000809;28;20109;-69
2022/10/18 10:02:59;;;;;;;2.25;1.10;;;25.30;56.00;;;;;;4998627;28;20077;-68
2022/10/18 10:05:24;;;;;;;1.67;1.17;;;25.30;56.00;;;;;;4998404;28;20034;-69
2022/10/18 10:07:58;;;;;;;2.40;1.00;;;25.30;56.00;;;;;;4996721;28;20030;-69
2022/10/18 10:10:26;;;;;;;1.45;1.10;;;25.30;56.00;;;;;;4998351;28;20426;-69
2022/10/18 10:13:15;;;;;;;1.42;1.08;;;25.30;56.00;;;;;;4994651;28;20133;-65
2022/10/18 10:15:50;;;;;;;2.17;1.20;;;25.30;56.00;;;;;;4998632;28;20494;-72
2022/10/18 10:18:20;;;;;;;1.35;1.05;;;25.30;56.00;;;;;;4992365;28;20029;-70
2022/10/18 10:20:54;;;;;;;2.45;1.02;;;25.30;56.00;;;;;;4989949;28;20076;-71
2022/10/18 10:23:31;;;;;;;1.55;0.98;;;25.30;56.00;;;;;;4997630;28;20113;-71
2022/10/18 10:26:18;;;;;;;1.65;1.20;;;25.30;56.00;;;;;;4994964;28;20474;-69
2022/10/18 10:28:47;;;;;;;1.40;1.00;;;25.30;56.00;;;;;;4993415;28;20521;-69
2022/10/18 10:31:26;;;;;;;1.40;1.08;;;25.30;56.10;;;;;;4986399;28;20096;-68
2022/10/18 10:34:00;;;;;;;1.50;1.02;;;25.30;56.10;;;;;;4995253;28;20030;-69
2022/10/18 10:36:27;;;;;;;1.90;1.30;;;25.30;56.00;;;;;;4998654;28;20492;-68
2022/10/18 10:39:03;;;;;;;1.90;1.17;;;25.30;56.50;;;;;;5000571;28;20473;-68
2022/10/18 10:41:29;;;;;;;1.50;1.10;;;25.30;56.00;;;;;;5000428;28;20359;-68
2022/10/18 10:43:55;;;;;;;1.50;1.13;;;25.30;56.10;;;;;;4998722;28;20081;-69
2022/10/18 10:46:22;;;;;;;1.65;1.10;;;25.30;56.10;;;;;;4999905;28;20038;-69
2022/10/18 10:48:57;;;;;;;2.35;1.30;;;25.30;56.10;;;;;;4999977;28;20064;-69
2022/10/18 10:51:30;;;;;;;3.38;1.60;;;25.30;56.20;;;;;;4995365;28;20053;-69
2022/10/18 10:54:03;;;;;;;2.65;1.40;;;25.30;56.20;;;;;;4977461;28;20389;-69
2022/10/18 10:56:32;;;;;;;2.95;1.55;;;25.30;56.20;;;;;;4993689;28;20386;-69
2022/10/18 10:59:12;;;;;;;2.60;1.60;;;25.30;56.20;;;;;;4996418;28;20105;-69
2022/10/18 11:01:37;;;;;;;4.07;2.00;;;25.30;56.20;;;;;;4996729;28;20034;-67
2022/10/18 11:04:27;;;;;;;4.55;2.47;;;25.30;56.30;;;;;;4998195;28;20386;-67
2022/10/18 11:06:59;;;;;;;5.85;2.20;;;25.30;56.30;;;;;;4992720;28;20125;-66
2022/10/18 11:09:43;;;;;;;5.80;3.00;;;25.30;56.30;;;;;;4998008;28;20474;-68
2022/10/18 11:12:17;;;;;;;4.85;2.65;;;25.30;56.20;;;;;;4990492;28;20548;-67
2022/10/18 11:14:47;;;;;;;6.55;3.05;;;25.30;56.20;;;;;;4992821;28;20085;-70
2022/10/18 11:17:34;;;;;;;5.55;2.90;;;25.30;56.20;;;;;;5002530;28;20034;-69
2022/10/18 11:20:06;;;;;;;5.10;3.08;;;25.30;56.30;;;;;;4992930;28;20072;-70
2022/10/18 11:22:42;;;;;;;5.05;2.60;;;25.30;56.80;;;;;;4993836;28;20030;-69
2022/10/18 11:25:14;;;;;;;4.38;2.85;;;25.30;56.20;;;;;;4997008;28;20030;-71
2022/10/18 11:27:42;;;;;;;6.05;2.55;;;25.30;56.30;;;;;;4987032;28;20346;-72
2022/10/18 11:30:32;;;;;;;5.38;2.50;;;25.30;56.50;;;;;;5002235;28;20026;-68
2022/10/18 11:33:08;;;;;;;4.55;2.83;;;25.30;56.50;;;;;;4998483;28;20033;-68
2022/10/18 11:35:49;;;;;;;4.40;2.75;;;25.30;56.50;;;;;;4997363;28;20112;-68
2022/10/18 11:38:35;;;;;;;4.03;2.50;;;25.40;56.60;;;;;;4988533;28;20037;-66
2022/10/18 11:41:36;;;;;;;5.47;2.50;;;25.40;56.60;;;;;;4995583;28;20050;-67
2022/10/18 11:44:10;;;;;;;5.68;2.75;;;25.40;56.50;;;;;;4995841;28;20034;-67
2022/10/18 11:47:06;;;;;;;5.05;2.45;;;25.40;56.50;;;;;;4993113;28;20026;-68
2022/10/18 11:50:08;;;;;;;3.88;2.38;;;25.40;57.20;;;;;;4991656;28;20195;-71
2022/10/18 11:52:34;;;;;;;4.10;2.30;;;25.40;57.20;;;;;;4994517;28;20033;-68
2022/10/18 11:55:19;;;;;;;4.03;2.33;;;25.40;57.00;;;;;;4988142;28;20367;-67
2022/10/18 11:58:01;;;;;;;4.63;2.53;;;25.50;56.80;;;;;;4999694;28;20023;-67
2022/10/18 12:00:50;;;;;;;5.63;3.08;;;25.50;56.80;;;;;;4998142;28;20035;-71
2022/10/18 12:03:58;;;;;;;5.03;2.78;;;25.50;56.70;;;;;;4992865;28;20475;-68
2022/10/18 12:06:32;;;;;;;4.35;2.45;;;25.50;56.60;;;;;;5000960;28;20485;-66
2022/10/18 12:09:43;;;;;;;4.25;2.55;;;25.50;56.50;;;;;;4996315;28;20450;-69
2022/10/18 12:12:13;;;;;;;3.95;2.60;;;25.50;56.50;;;;;;4987535;28;20049;-71
2022/10/18 12:14:53;;;;;;;4.78;2.60;;;25.50;56.60;;;;;;4997159;28;20581;-68
2022/10/18 12:17:29;;;;;;;5.43;2.90;;;25.50;56.60;;;;;;4998126;28;20493;-68
2022/10/18 12:19:58;;;;;;;4.55;2.40;;;25.60;56.70;;;;;;4980293;28;20072;-69
2022/10/18 12:22:35;;;;;;;4.05;2.53;;;25.60;56.60;;;;;;4997474;28;20019;-68
2022/10/18 12:25:00;;;;;;;5.10;2.50;;;25.60;56.70;;;;;;4991657;28;20029;-69
2022/10/18 12:27:59;;;;;;;4.05;2.42;;;25.60;56.70;;;;;;4979743;28;20037;-66
2022/10/18 12:30:41;;;;;;;4.43;2.30;;;25.60;56.80;;;;;;4972315;28;20592;-69
2022/10/18 12:33:15;;;;;;;4.75;2.50;;;25.60;56.70;;;;;;4977661;28;20026;-69
2022/10/18 12:36:03;;;;;;;4.78;2.67;;;25.60;56.70;;;;;;4998668;28;20077;-67
2022/10/18 12:38:33;;;;;;;3.95;2.35;;;25.60;56.60;;;;;;4993415;28;20018;-68
2022/10/18 12:40:59;;;;;;;5.05;2.38;;;25.60;56.60;;;;;;4994741;28;20110;-71
2022/10/18 12:43:32;;;;;;;3.45;2.25;;;25.60;56.50;;;;;;4995531;28;20028;-70
2022/10/18 12:46:00;;;;;;;4.00;2.35;;;25.60;56.50;;;;;;4998215;28;20557;-69
2022/10/18 12:48:38;;;;;;;4.65;2.50;;;25.70;56.60;;;;;;4976596;28;20141;-69
2022/10/18 12:51:14;;;;;;;5.07;2.80;;;25.70;56.60;;;;;;4990535;28;20030;-68
2022/10/18 12:53:41;;;;;;;4.57;2.70;;;25.70;56.70;;;;;;4990574;28;20030;-66
2022/10/18 12:56:29;;;;;;;3.85;2.35;;;25.70;56.60;;;;;;4997024;28;20030;-68
2022/10/18 12:59:18;;;;;;;4.13;2.53;;;25.70;56.60;;;;;;4980500;28;20023;-69
2022/10/18 13:02:04;;;;;;;4.65;2.65;;;25.70;56.60;;;;;;4968560;28;20053;-68
2022/10/18 13:04:31;;;;;;;4.65;2.55;;;25.70;56.60;;;;;;4987096;28;20042;-68
2022/10/18 13:06:59;;;;;;;3.92;2.80;;;25.70;56.60;;;;;;4999022;28;20057;-67
2022/10/18 13:09:28;;;;;;;4.35;2.42;;;25.70;56.60;;;;;;5000496;28;20030;-68